sensor_id;sensor_type;location;lat;lon;timestamp;pressure;altitude;pressure_sealevel;temperature
34310;BMP280;61664;48.112;11.662;2022-09-09T00:02:29;95328.03;;;19.34
34310;BMP280;61664;48.112;11.662;2022-09-09T00:05:29;95329.09;;;19.31
34310;BMP280;61664;48.112;11.662;2022-09-09T00:08:02;95328.66;;;19.27
34310;BMP280;61664;48.112;11.662;2022-09-09T00:13:22;95322.63;;;19.21
34310;BMP280;61664;48.112;11.662;2022-09-09T00:16:33;95320.72;;;19.16
34310;BMP280;61664;48.112;11.662;2022-09-09T00:19:12;95333.22;;;19.19
34310;BMP280;61664;48.112;11.662;2022-09-09T00:22:15;95324.69;;;19.15
34310;BMP280;61664;48.112;11.662;2022-09-09T00:27:24;95320.72;;;19.16
34310;BMP280;61664;48.112;11.662;2022-09-09T00:32:47;95318.00;;;19.16
34310;BMP280;61664;48.112;11.662;2022-09-09T00:35:25;95322.00;;;19.15
34310;BMP280;61664;48.112;11.662;2022-09-09T00:38:03;95317.41;;;19.10
34310;BMP280;61664;48.112;11.662;2022-09-09T00:40:38;95330.13;;;19.15
34310;BMP280;61664;48.112;11.662;2022-09-09T00:43:31;95330.81;;;19.16
34310;BMP280;61664;48.112;11.662;2022-09-09T00:46:46;95331.88;;;19.13
34310;BMP280;61664;48.112;11.662;2022-09-09T00:49:39;95330.69;;;19.08
34310;BMP280;61664;48.112;11.662;2022-09-09T00:53:34;95339.94;;;18.99
34310;BMP280;61664;48.112;11.662;2022-09-09T00:58:09;95331.28;;;18.88
34310;BMP280;61664;48.112;11.662;2022-09-09T01:00:57;95325.19;;;18.68
34310;BMP280;61664;48.112;11.662;2022-09-09T01:03:53;95339.34;;;18.75
34310;BMP280;61664;48.112;11.662;2022-09-09T01:06:30;95338.84;;;18.76
34310;BMP280;61664;48.112;11.662;2022-09-09T01:11:58;95333.88;;;18.80
34310;BMP280;61664;48.112;11.662;2022-09-09T01:17:14;95317.63;;;18.80
34310;BMP280;61664;48.112;11.662;2022-09-09T01:22:33;95316.81;;;18.85
34310;BMP280;61664;48.112;11.662;2022-09-09T01:27:47;95314.44;;;18.95
34310;BMP280;61664;48.112;11.662;2022-09-09T01:30:17;95321.94;;;19.02
34310;BMP280;61664;48.112;11.662;2022-09-09T01:32:52;95325.00;;;19.12
34310;BMP280;61664;48.112;11.662;2022-09-09T01:35:47;95321.34;;;19.09
34310;BMP280;61664;48.112;11.662;2022-09-09T01:38:18;95329.38;;;19.15
34310;BMP280;61664;48.112;11.662;2022-09-09T01:40:45;95321.75;;;19.00
34310;BMP280;61664;48.112;11.662;2022-09-09T01:43:13;95316.72;;;18.91
34310;BMP280;61664;48.112;11.662;2022-09-09T01:45:41;95329.59;;;18.85
34310;BMP280;61664;48.112;11.662;2022-09-09T01:48:09;95321.13;;;18.75
34310;BMP280;61664;48.112;11.662;2022-09-09T01:50:36;95317.22;;;18.57
34310;BMP280;61664;48.112;11.662;2022-09-09T01:53:04;95326.16;;;18.52
34310;BMP280;61664;48.112;11.662;2022-09-09T01:55:39;95330.38;;;18.48
34310;BMP280;61664;48.112;11.662;2022-09-09T02:03:57;95324.97;;;18.48
34310;BMP280;61664;48.112;11.662;2022-09-09T02:06:39;95329.88;;;18.49
34310;BMP280;61664;48.112;11.662;2022-09-09T02:09:10;95320.56;;;18.50
34310;BMP280;61664;48.112;11.662;2022-09-09T02:11:41;95320.25;;;18.54
34310;BMP280;61664;48.112;11.662;2022-09-09T02:14:22;95306.59;;;18.46
34310;BMP280;61664;48.112;11.662;2022-09-09T02:16:59;95321.16;;;18.56
34310;BMP280;61664;48.112;11.662;2022-09-09T02:19:39;95294.06;;;18.43
34310;BMP280;61664;48.112;11.662;2022-09-09T02:22:08;95315.75;;;18.56
34310;BMP280;61664;48.112;11.662;2022-09-09T02:24:39;95315.75;;;18.56
34310;BMP280;61664;48.112;11.662;2022-09-09T02:27:08;95304.06;;;18.48
34310;BMP280;61664;48.112;11.662;2022-09-09T02:29:41;95318.28;;;18.54
34310;BMP280;61664;48.112;11.662;2022-09-09T02:32:27;95321.03;;;18.49
34310;BMP280;61664;48.112;11.662;2022-09-09T02:35:13;95317.97;;;18.39
34310;BMP280;61664;48.112;11.662;2022-09-09T02:37:44;95323.47;;;18.33
34310;BMP280;61664;48.112;11.662;2022-09-09T02:40:14;95318.22;;;18.22
34310;BMP280;61664;48.112;11.662;2022-09-09T02:42:47;95317.19;;;18.25
34310;BMP280;61664;48.112;11.662;2022-09-09T02:45:22;95320.63;;;18.26
34310;BMP280;61664;48.112;11.662;2022-09-09T02:48:18;95311.09;;;18.19
34310;BMP280;61664;48.112;11.662;2022-09-09T02:51:08;95309.63;;;18.18
34310;BMP280;61664;48.112;11.662;2022-09-09T02:56:19;95312.97;;;18.11
34310;BMP280;61664;48.112;11.662;2022-09-09T02:58:48;95315.94;;;18.08
34310;BMP280;61664;48.112;11.662;2022-09-09T03:01:16;95303.25;;;18.03
34310;BMP280;61664;48.112;11.662;2022-09-09T03:03:44;95314.19;;;18.10
34310;BMP280;61664;48.112;11.662;2022-09-09T03:06:12;95302.16;;;18.11
34310;BMP280;61664;48.112;11.662;2022-09-09T03:08:39;95305.22;;;18.21
34310;BMP280;61664;48.112;11.662;2022-09-09T03:11:14;95301.47;;;18.24
34310;BMP280;61664;48.112;11.662;2022-09-09T03:13:41;95296.47;;;18.28
34310;BMP280;61664;48.112;11.662;2022-09-09T03:16:08;95294.44;;;18.34
34310;BMP280;61664;48.112;11.662;2022-09-09T03:18:38;95297.06;;;18.40
34310;BMP280;61664;48.112;11.662;2022-09-09T03:21:05;95300.03;;;18.42
34310;BMP280;61664;48.112;11.662;2022-09-09T03:23:33;95295.31;;;18.42
34310;BMP280;61664;48.112;11.662;2022-09-09T03:26:00;95299.91;;;18.47
34310;BMP280;61664;48.112;11.662;2022-09-09T03:28:27;95291.53;;;18.51
34310;BMP280;61664;48.112;11.662;2022-09-09T03:31:00;95285.38;;;18.50
34310;BMP280;61664;48.112;11.662;2022-09-09T03:33:27;95285.66;;;18.47
34310;BMP280;61664;48.112;11.662;2022-09-09T03:35:55;95286.25;;;18.40
34310;BMP280;61664;48.112;11.662;2022-09-09T03:38:24;95289.47;;;18.38
34310;BMP280;61664;48.112;11.662;2022-09-09T03:40:56;95290.69;;;18.37
34310;BMP280;61664;48.112;11.662;2022-09-09T03:43:25;95289.03;;;18.34
34310;BMP280;61664;48.112;11.662;2022-09-09T03:45:53;95278.59;;;18.25
34310;BMP280;61664;48.112;11.662;2022-09-09T03:48:24;95287.03;;;18.21
34310;BMP280;61664;48.112;11.662;2022-09-09T03:50:54;95293.78;;;18.28
34310;BMP280;61664;48.112;11.662;2022-09-09T03:53:24;95287.88;;;18.29
34310;BMP280;61664;48.112;11.662;2022-09-09T03:55:54;95290.28;;;18.33
34310;BMP280;61664;48.112;11.662;2022-09-09T03:58:22;95291.31;;;18.30
34310;BMP280;61664;48.112;11.662;2022-09-09T04:03:22;95284.31;;;18.40
34310;BMP280;61664;48.112;11.662;2022-09-09T04:05:57;95276.19;;;18.40
34310;BMP280;61664;48.112;11.662;2022-09-09T04:08:25;95293.06;;;18.46
34310;BMP280;61664;48.112;11.662;2022-09-09T04:10:53;95283.47;;;18.45
34310;BMP280;61664;48.112;11.662;2022-09-09T04:13:25;95282.88;;;18.52
34310;BMP280;61664;48.112;11.662;2022-09-09T04:15:58;95269.41;;;18.47
34310;BMP280;61664;48.112;11.662;2022-09-09T04:18:26;95260.59;;;18.46
34310;BMP280;61664;48.112;11.662;2022-09-09T04:20:54;95283.28;;;18.56
34310;BMP280;61664;48.112;11.662;2022-09-09T04:23:26;95265.19;;;18.51
34310;BMP280;61664;48.112;11.662;2022-09-09T04:25:57;95258.59;;;18.47
34310;BMP280;61664;48.112;11.662;2022-09-09T04:28:28;95272.06;;;18.52
34310;BMP280;61664;48.112;11.662;2022-09-09T04:30:56;95268.72;;;18.46
34310;BMP280;61664;48.112;11.662;2022-09-09T04:33:24;95260.78;;;18.48
34310;BMP280;61664;48.112;11.662;2022-09-09T04:35:54;95260.59;;;18.46
34310;BMP280;61664;48.112;11.662;2022-09-09T04:38:21;95259.13;;;18.45
34310;BMP280;61664;48.112;11.662;2022-09-09T04:40:51;95264.97;;;18.49
34310;BMP280;61664;48.112;11.662;2022-09-09T04:43:19;95261.78;;;18.51
34310;BMP280;61664;48.112;11.662;2022-09-09T04:45:49;95258.09;;;18.48
34310;BMP280;61664;48.112;11.662;2022-09-09T04:48:17;95266.66;;;18.52
34310;BMP280;61664;48.112;11.662;2022-09-09T04:50:53;95261.84;;;18.45
34310;BMP280;61664;48.112;11.662;2022-09-09T04:53:20;95263.31;;;18.46
34310;BMP280;61664;48.112;11.662;2022-09-09T04:55:47;95261.66;;;18.56
34310;BMP280;61664;48.112;11.662;2022-09-09T04:58:14;95259.47;;;18.55
34310;BMP280;61664;48.112;11.662;2022-09-09T05:00:41;95258.53;;;18.52
34310;BMP280;61664;48.112;11.662;2022-09-09T05:03:09;95261.22;;;18.52
34310;BMP280;61664;48.112;11.662;2022-09-09T05:05:36;95262.97;;;18.50
34310;BMP280;61664;48.112;11.662;2022-09-09T05:08:07;95262.75;;;18.48
34310;BMP280;61664;48.112;11.662;2022-09-09T05:10:38;95264.00;;;18.47
34310;BMP280;61664;48.112;11.662;2022-09-09T05:13:05;95268.50;;;18.44
34310;BMP280;61664;48.112;11.662;2022-09-09T05:15:33;95261.16;;;18.39
34310;BMP280;61664;48.112;11.662;2022-09-09T05:18:01;95269.94;;;18.45
34310;BMP280;61664;48.112;11.662;2022-09-09T05:20:29;95268.56;;;18.39
34310;BMP280;61664;48.112;11.662;2022-09-09T05:22:56;95277.47;;;18.52
34310;BMP280;61664;48.112;11.662;2022-09-09T05:25:24;95279.84;;;18.56
34310;BMP280;61664;48.112;11.662;2022-09-09T05:27:52;95266.66;;;18.52
34310;BMP280;61664;48.112;11.662;2022-09-09T05:30:21;95281.66;;;18.66
34310;BMP280;61664;48.112;11.662;2022-09-09T05:32:49;95276.91;;;18.73
34310;BMP280;61664;48.112;11.662;2022-09-09T05:35:16;95278.25;;;18.79
34310;BMP280;61664;48.112;11.662;2022-09-09T05:37:45;95283.19;;;18.81
34310;BMP280;61664;48.112;11.662;2022-09-09T05:40:13;95268.16;;;18.80
34310;BMP280;61664;48.112;11.662;2022-09-09T05:42:40;95279.25;;;18.95
34310;BMP280;61664;48.112;11.662;2022-09-09T05:45:08;95281.72;;;18.93
34310;BMP280;61664;48.112;11.662;2022-09-09T05:47:36;95274.00;;;18.84
34310;BMP280;61664;48.112;11.662;2022-09-09T05:50:04;95284.66;;;18.95
34310;BMP280;61664;48.112;11.662;2022-09-09T05:52:31;95286.13;;;18.96
34310;BMP280;61664;48.112;11.662;2022-09-09T05:54:59;95267.56;;;18.87
34310;BMP280;61664;48.112;11.662;2022-09-09T05:57:26;95288.63;;;19.07
34310;BMP280;61664;48.112;11.662;2022-09-09T05:59:53;95277.78;;;19.07
34310;BMP280;61664;48.112;11.662;2022-09-09T06:02:20;95289.16;;;19.19
34310;BMP280;61664;48.112;11.662;2022-09-09T06:04:47;95291.59;;;19.22
34310;BMP280;61664;48.112;11.662;2022-09-09T06:07:14;95292.19;;;19.28
34310;BMP280;61664;48.112;11.662;2022-09-09T06:09:41;95299.47;;;19.33
34310;BMP280;61664;48.112;11.662;2022-09-09T06:12:08;95301.59;;;19.40
34310;BMP280;61664;48.112;11.662;2022-09-09T06:14:35;95295.13;;;19.43
34310;BMP280;61664;48.112;11.662;2022-09-09T06:17:03;95303.91;;;19.50
34310;BMP280;61664;48.112;11.662;2022-09-09T06:19:30;95299.69;;;19.48
34310;BMP280;61664;48.112;11.662;2022-09-09T06:21:57;95294.09;;;19.46
34310;BMP280;61664;48.112;11.662;2022-09-09T06:24:26;95292.22;;;19.41
34310;BMP280;61664;48.112;11.662;2022-09-09T06:26:53;95290.66;;;19.46
34310;BMP280;61664;48.112;11.662;2022-09-09T06:29:20;95289.69;;;19.43
34310;BMP280;61664;48.112;11.662;2022-09-09T06:31:47;95298.22;;;19.47
34310;BMP280;61664;48.112;11.662;2022-09-09T06:34:14;95291.81;;;19.51
34310;BMP280;61664;48.112;11.662;2022-09-09T06:36:41;95305.84;;;19.49
34310;BMP280;61664;48.112;11.662;2022-09-09T06:39:09;95298.03;;;19.45
34310;BMP280;61664;48.112;11.662;2022-09-09T06:41:41;95290.44;;;19.44
34310;BMP280;61664;48.112;11.662;2022-09-09T06:44:09;95306.34;;;19.47
34310;BMP280;61664;48.112;11.662;2022-09-09T06:46:38;95298.16;;;19.53
34310;BMP280;61664;48.112;11.662;2022-09-09T06:49:08;95298.16;;;19.53
34310;BMP280;61664;48.112;11.662;2022-09-09T06:51:37;95311.59;;;19.59
34310;BMP280;61664;48.112;11.662;2022-09-09T06:54:11;95294.38;;;19.43
34310;BMP280;61664;48.112;11.662;2022-09-09T06:56:42;95311.38;;;19.43
34310;BMP280;61664;48.112;11.662;2022-09-09T06:59:11;95296.78;;;19.33
34310;BMP280;61664;48.112;11.662;2022-09-09T07:01:41;95306.78;;;19.25
34310;BMP280;61664;48.112;11.662;2022-09-09T07:04:09;95305.41;;;19.19
34310;BMP280;61664;48.112;11.662;2022-09-09T07:06:43;95309.16;;;19.16
34310;BMP280;61664;48.112;11.662;2022-09-09T07:09:14;95313.88;;;19.15
34310;BMP280;61664;48.112;11.662;2022-09-09T07:11:49;95309.28;;;19.10
34310;BMP280;61664;48.112;11.662;2022-09-09T07:14:17;95302.38;;;19.09
34310;BMP280;61664;48.112;11.662;2022-09-09T07:16:45;95310.53;;;19.22
34310;BMP280;61664;48.112;11.662;2022-09-09T07:19:13;95322.00;;;19.28
34310;BMP280;61664;48.112;11.662;2022-09-09T07:21:41;95315.03;;;19.33
34310;BMP280;61664;48.112;11.662;2022-09-09T07:24:09;95319.06;;;19.39
34310;BMP280;61664;48.112;11.662;2022-09-09T07:26:38;95315.53;;;19.44
34310;BMP280;61664;48.112;11.662;2022-09-09T07:29:07;95334.28;;;19.56
34310;BMP280;61664;48.112;11.662;2022-09-09T07:31:38;95333.25;;;19.59
34310;BMP280;61664;48.112;11.662;2022-09-09T07:34:07;95343.16;;;19.56
34310;BMP280;61664;48.112;11.662;2022-09-09T07:36:38;95369.09;;;19.65
34310;BMP280;61664;48.112;11.662;2022-09-09T07:39:10;95370.38;;;19.64
34310;BMP280;61664;48.112;11.662;2022-09-09T07:41:44;95365.16;;;19.66
34310;BMP280;61664;48.112;11.662;2022-09-09T07:44:16;95358.81;;;19.63
34310;BMP280;61664;48.112;11.662;2022-09-09T07:46:43;95366.63;;;19.67
34310;BMP280;61664;48.112;11.662;2022-09-09T07:49:13;95361.63;;;19.71
34310;BMP280;61664;48.112;11.662;2022-09-09T07:51:46;95373.72;;;19.83
34310;BMP280;61664;48.112;11.662;2022-09-09T07:54:17;95382.56;;;19.97
34310;BMP280;61664;48.112;11.662;2022-09-09T07:56:47;95379.41;;;20.06
34310;BMP280;61664;48.112;11.662;2022-09-09T07:59:14;95388.69;;;20.23
34310;BMP280;61664;48.112;11.662;2022-09-09T08:01:49;95390.97;;;20.33
34310;BMP280;61664;48.112;11.662;2022-09-09T08:04:22;95392.38;;;20.47
34310;BMP280;61664;48.112;11.662;2022-09-09T08:06:56;95392.56;;;20.62
34310;BMP280;61664;48.112;11.662;2022-09-09T08:09:25;95383.63;;;20.75
34310;BMP280;61664;48.112;11.662;2022-09-09T08:11:56;95376.91;;;20.76
34310;BMP280;61664;48.112;11.662;2022-09-09T08:14:23;95380.78;;;20.80
34310;BMP280;61664;48.112;11.662;2022-09-09T08:16:51;95387.72;;;20.89
34310;BMP280;61664;48.112;11.662;2022-09-09T08:19:20;95390.50;;;20.96
34310;BMP280;61664;48.112;11.662;2022-09-09T08:21:47;95382.97;;;21.02
34310;BMP280;61664;48.112;11.662;2022-09-09T08:24:15;95399.34;;;21.10
34310;BMP280;61664;48.112;11.662;2022-09-09T08:26:45;95405.03;;;21.20
34310;BMP280;61664;48.112;11.662;2022-09-09T08:29:14;95396.19;;;21.27
34310;BMP280;61664;48.112;11.662;2022-09-09T08:31:49;95418.25;;;21.44
34310;BMP280;61664;48.112;11.662;2022-09-09T08:34:16;95413.97;;;21.56
34310;BMP280;61664;48.112;11.662;2022-09-09T08:36:48;95421.25;;;21.61
34310;BMP280;61664;48.112;11.662;2022-09-09T08:39:18;95414.56;;;21.62
34310;BMP280;61664;48.112;11.662;2022-09-09T08:42:49;95417.50;;;21.64
34310;BMP280;61664;48.112;11.662;2022-09-09T08:47:56;95416.41;;;21.67
34310;BMP280;61664;48.112;11.662;2022-09-09T08:50:36;95413.38;;;21.71
34310;BMP280;61664;48.112;11.662;2022-09-09T08:53:23;95422.63;;;21.75
34310;BMP280;61664;48.112;11.662;2022-09-09T08:55:56;95416.50;;;21.82
34310;BMP280;61664;48.112;11.662;2022-09-09T08:58:31;95402.91;;;21.82
34310;BMP280;61664;48.112;11.662;2022-09-09T09:03:51;95403.38;;;21.73
34310;BMP280;61664;48.112;11.662;2022-09-09T09:10:21;95410.28;;;21.46
34310;BMP280;61664;48.112;11.662;2022-09-09T09:12:23;95413.16;;;21.40
34310;BMP280;61664;48.112;11.662;2022-09-09T09:14:51;95408.75;;;21.37
34310;BMP280;61664;48.112;11.662;2022-09-09T09:17:20;95406.78;;;21.38
34310;BMP280;61664;48.112;11.662;2022-09-09T09:19:49;95398.44;;;21.36
34310;BMP280;61664;48.112;11.662;2022-09-09T09:27:58;95416.69;;;21.84
34310;BMP280;61664;48.112;11.662;2022-09-09T09:30:48;95413.00;;;22.03
34310;BMP280;61664;48.112;11.662;2022-09-09T09:36:08;95413.44;;;22.22
34310;BMP280;61664;48.112;11.662;2022-09-09T09:38:36;95413.06;;;22.25
34310;BMP280;61664;48.112;11.662;2022-09-09T09:41:38;95415.00;;;22.10
34310;BMP280;61664;48.112;11.662;2022-09-09T09:44:32;95422.44;;;22.09
34310;BMP280;61664;48.112;11.662;2022-09-09T09:49:54;95418.06;;;22.06
34310;BMP280;61664;48.112;11.662;2022-09-09T09:52:25;95430.41;;;22.07
34310;BMP280;61664;48.112;11.662;2022-09-09T09:54:53;95428.22;;;22.06
34310;BMP280;61664;48.112;11.662;2022-09-09T09:57:29;95419.84;;;21.96
34310;BMP280;61664;48.112;11.662;2022-09-09T10:00:25;95425.47;;;21.98
34310;BMP280;61664;48.112;11.662;2022-09-09T10:02:52;95430.78;;;22.04
34310;BMP280;61664;48.112;11.662;2022-09-09T10:05:25;95437.28;;;22.08
34310;BMP280;61664;48.112;11.662;2022-09-09T10:19:37;95420.38;;;22.31
34310;BMP280;61664;48.112;11.662;2022-09-09T10:28:02;95420.38;;;21.95
34310;BMP280;61664;48.112;11.662;2022-09-09T10:36:23;95410.59;;;21.63
34310;BMP280;61664;48.112;11.662;2022-09-09T10:39:06;95425.69;;;21.72
34310;BMP280;61664;48.112;11.662;2022-09-09T10:41:54;95427.50;;;21.77
34310;BMP280;61664;48.112;11.662;2022-09-09T10:44:52;95422.69;;;21.83
34310;BMP280;61664;48.112;11.662;2022-09-09T10:50:42;95422.78;;;22.06
34310;BMP280;61664;48.112;11.662;2022-09-09T10:54:03;95426.50;;;22.23
34310;BMP280;61664;48.112;11.662;2022-09-09T10:56:34;95416.53;;;22.26
34310;BMP280;61664;48.112;11.662;2022-09-09T10:59:29;95419.69;;;22.53
34310;BMP280;61664;48.112;11.662;2022-09-09T11:02:14;95436.81;;;22.76
34310;BMP280;61664;48.112;11.662;2022-09-09T11:07:43;95428.44;;;22.74
34310;BMP280;61664;48.112;11.662;2022-09-09T11:10:34;95417.16;;;22.55
34310;BMP280;61664;48.112;11.662;2022-09-09T11:13:11;95424.25;;;22.65
34310;BMP280;61664;48.112;11.662;2022-09-09T11:15:54;95424.94;;;22.58
34310;BMP280;61664;48.112;11.662;2022-09-09T11:18:23;95422.16;;;22.36
34310;BMP280;61664;48.112;11.662;2022-09-09T11:20:59;95431.59;;;22.27
34310;BMP280;61664;48.112;11.662;2022-09-09T11:23:52;95412.28;;;22.10
34310;BMP280;61664;48.112;11.662;2022-09-09T11:26:33;95431.38;;;22.25
34310;BMP280;61664;48.112;11.662;2022-09-09T11:29:57;95430.84;;;22.27
34310;BMP280;61664;48.112;11.662;2022-09-09T11:35:26;95432.41;;;22.50
34310;BMP280;61664;48.112;11.662;2022-09-09T11:40:42;95426.69;;;23.07
34310;BMP280;61664;48.112;11.662;2022-09-09T11:46:12;95418.31;;;23.51
34310;BMP280;61664;48.112;11.662;2022-09-09T11:48:44;95414.59;;;23.78
34310;BMP280;61664;48.112;11.662;2022-09-09T11:53:53;95416.22;;;24.29
34310;BMP280;61664;48.112;11.662;2022-09-09T11:56:34;95411.94;;;24.51
34310;BMP280;61664;48.112;11.662;2022-09-09T11:59:24;95417.88;;;24.57
34310;BMP280;61664;48.112;11.662;2022-09-09T12:07:38;95413.25;;;24.67
34310;BMP280;61664;48.112;11.662;2022-09-09T12:10:41;95415.00;;;24.55
34310;BMP280;61664;48.112;11.662;2022-09-09T12:13:24;95405.72;;;24.50
34310;BMP280;61664;48.112;11.662;2022-09-09T12:15:57;95412.84;;;24.46
34310;BMP280;61664;48.112;11.662;2022-09-09T12:24:13;95409.66;;;24.32
34310;BMP280;61664;48.112;11.662;2022-09-09T12:27:05;95412.94;;;24.38
34310;BMP280;61664;48.112;11.662;2022-09-09T12:33:11;95411.41;;;24.45
34310;BMP280;61664;48.112;11.662;2022-09-09T12:35:42;95403.88;;;24.53
34310;BMP280;61664;48.112;11.662;2022-09-09T12:38:21;95393.50;;;24.59
34310;BMP280;61664;48.112;11.662;2022-09-09T12:40:57;95405.31;;;24.61
34310;BMP280;61664;48.112;11.662;2022-09-09T12:43:27;95396.72;;;24.65
34310;BMP280;61664;48.112;11.662;2022-09-09T12:46:06;95389.34;;;24.75
34310;BMP280;61664;48.112;11.662;2022-09-09T12:48:39;95377.25;;;24.86
34310;BMP280;61664;48.112;11.662;2022-09-09T12:51:29;95386.63;;;25.17
34310;BMP280;61664;48.112;11.662;2022-09-09T12:53:59;95391.81;;;25.30
34310;BMP280;61664;48.112;11.662;2022-09-09T12:56:30;95384.66;;;25.52
34310;BMP280;61664;48.112;11.662;2022-09-09T12:58:58;95386.41;;;25.74
34310;BMP280;61664;48.112;11.662;2022-09-09T13:01:31;95387.88;;;25.75
34310;BMP280;61664;48.112;11.662;2022-09-09T13:04:00;95372.59;;;25.55
34310;BMP280;61664;48.112;11.662;2022-09-09T13:06:32;95362.28;;;25.46
34310;BMP280;61664;48.112;11.662;2022-09-09T13:09:02;95372.22;;;25.58
34310;BMP280;61664;48.112;11.662;2022-09-09T13:11:41;95370.97;;;25.35
34310;BMP280;61664;48.112;11.662;2022-09-09T13:14:36;95366.63;;;25.14
34310;BMP280;61664;48.112;11.662;2022-09-09T13:17:18;95368.22;;;25.17
34310;BMP280;61664;48.112;11.662;2022-09-09T13:19:46;95366.41;;;25.20
34310;BMP280;61664;48.112;11.662;2022-09-09T13:22:33;95373.31;;;25.21
34310;BMP280;61664;48.112;11.662;2022-09-09T13:25:26;95359.06;;;25.23
34310;BMP280;61664;48.112;11.662;2022-09-09T13:28:03;95357.13;;;25.33
34310;BMP280;61664;48.112;11.662;2022-09-09T13:30:37;95356.81;;;25.29
34310;BMP280;61664;48.112;11.662;2022-09-09T13:35:52;95352.06;;;24.87
34310;BMP280;61664;48.112;11.662;2022-09-09T13:38:21;95358.25;;;24.70
34310;BMP280;61664;48.112;11.662;2022-09-09T13:43:31;95356.09;;;24.37
34310;BMP280;61664;48.112;11.662;2022-09-09T13:49:23;95343.94;;;23.98
34310;BMP280;61664;48.112;11.662;2022-09-09T13:51:51;95349.28;;;23.88
34310;BMP280;61664;48.112;11.662;2022-09-09T13:54:21;95330.66;;;23.62
34310;BMP280;61664;48.112;11.662;2022-09-09T13:56:48;95344.84;;;23.45
34310;BMP280;61664;48.112;11.662;2022-09-09T13:59:19;95340.91;;;23.23
34310;BMP280;61664;48.112;11.662;2022-09-09T14:02:03;95336.94;;;23.09
34310;BMP280;61664;48.112;11.662;2022-09-09T14:04:30;95337.47;;;23.00
34310;BMP280;61664;48.112;11.662;2022-09-09T14:06:57;95336.22;;;22.93
34310;BMP280;61664;48.112;11.662;2022-09-09T14:09:24;95339.13;;;22.88
34310;BMP280;61664;48.112;11.662;2022-09-09T14:11:51;95331.50;;;22.86
34310;BMP280;61664;48.112;11.662;2022-09-09T14:14:18;95322.97;;;22.90
34310;BMP280;61664;48.112;11.662;2022-09-09T14:16:45;95335.47;;;22.93
34310;BMP280;61664;48.112;11.662;2022-09-09T14:19:12;95333.50;;;22.93
34310;BMP280;61664;48.112;11.662;2022-09-09T14:21:38;95326.78;;;22.87
34310;BMP280;61664;48.112;11.662;2022-09-09T14:24:06;95338.41;;;22.95
34310;BMP280;61664;48.112;11.662;2022-09-09T14:26:32;95327.69;;;22.89
34310;BMP280;61664;48.112;11.662;2022-09-09T14:28:59;95339.13;;;23.11
34310;BMP280;61664;48.112;11.662;2022-09-09T14:31:28;95339.06;;;23.41
34310;BMP280;61664;48.112;11.662;2022-09-09T14:33:55;95342.28;;;23.62
34310;BMP280;61664;48.112;11.662;2022-09-09T14:36:22;95338.97;;;23.71
34310;BMP280;61664;48.112;11.662;2022-09-09T14:38:49;95344.06;;;23.67
34310;BMP280;61664;48.112;11.662;2022-09-09T14:41:19;95351.03;;;23.53
34310;BMP280;61664;48.112;11.662;2022-09-09T14:43:46;95337.63;;;23.25
34310;BMP280;61664;48.112;11.662;2022-09-09T14:46:16;95353.06;;;23.22
34310;BMP280;61664;48.112;11.662;2022-09-09T14:48:44;95348.19;;;23.05
34310;BMP280;61664;48.112;11.662;2022-09-09T14:51:16;95353.63;;;22.98
34310;BMP280;61664;48.112;11.662;2022-09-09T14:53:43;95348.56;;;22.79
34310;BMP280;61664;48.112;11.662;2022-09-09T14:56:19;95366.00;;;22.84
34310;BMP280;61664;48.112;11.662;2022-09-09T14:58:48;95365.44;;;22.78
34310;BMP280;61664;48.112;11.662;2022-09-09T15:01:18;95358.00;;;22.71
34310;BMP280;61664;48.112;11.662;2022-09-09T15:03:54;95363.28;;;22.76
34310;BMP280;61664;48.112;11.662;2022-09-09T15:06:22;95362.00;;;22.85
34310;BMP280;61664;48.112;11.662;2022-09-09T15:08:52;95345.84;;;22.79
34310;BMP280;61664;48.112;11.662;2022-09-09T15:11:20;95363.09;;;22.82
34310;BMP280;61664;48.112;11.662;2022-09-09T15:13:51;95350.19;;;22.59
34310;BMP280;61664;48.112;11.662;2022-09-09T15:16:24;95347.28;;;22.42
34310;BMP280;61664;48.112;11.662;2022-09-09T15:18:54;95341.94;;;22.21
34310;BMP280;61664;48.112;11.662;2022-09-09T15:21:26;95344.63;;;22.14
34310;BMP280;61664;48.112;11.662;2022-09-09T15:23:53;95346.97;;;22.02
34310;BMP280;61664;48.112;11.662;2022-09-09T15:26:21;95344.00;;;21.93
34310;BMP280;61664;48.112;11.662;2022-09-09T15:28:49;95339.66;;;21.90
34310;BMP280;61664;48.112;11.662;2022-09-09T15:31:20;95346.94;;;21.95
34310;BMP280;61664;48.112;11.662;2022-09-09T15:33:56;95344.56;;;21.99
34310;BMP280;61664;48.112;11.662;2022-09-09T15:36:33;95337.91;;;22.07
34310;BMP280;61664;48.112;11.662;2022-09-09T15:39:03;95341.91;;;22.14
34310;BMP280;61664;48.112;11.662;2022-09-09T15:41:30;95332.13;;;22.18
34310;BMP280;61664;48.112;11.662;2022-09-09T15:44:01;95329.25;;;22.24
34310;BMP280;61664;48.112;11.662;2022-09-09T15:49:17;95325.66;;;22.29
34310;BMP280;61664;48.112;11.662;2022-09-09T15:51:50;95325.28;;;22.33
34310;BMP280;61664;48.112;11.662;2022-09-09T15:54:20;95327.13;;;22.45
34310;BMP280;61664;48.112;11.662;2022-09-09T15:56:58;95303.16;;;22.66
34310;BMP280;61664;48.112;11.662;2022-09-09T15:59:28;95317.34;;;23.03
34310;BMP280;61664;48.112;11.662;2022-09-09T16:01:59;95308.13;;;23.54
34310;BMP280;61664;48.112;11.662;2022-09-09T16:04:28;95289.09;;;24.18
34310;BMP280;61664;48.112;11.662;2022-09-09T16:07:02;95306.63;;;24.57
34310;BMP280;61664;48.112;11.662;2022-09-09T16:09:31;95315.97;;;24.47
34310;BMP280;61664;48.112;11.662;2022-09-09T16:12:00;95314.84;;;24.25
34310;BMP280;61664;48.112;11.662;2022-09-09T16:14:28;95301.38;;;24.02
34310;BMP280;61664;48.112;11.662;2022-09-09T16:16:55;95312.16;;;23.85
34310;BMP280;61664;48.112;11.662;2022-09-09T16:19:23;95305.88;;;23.67
34310;BMP280;61664;48.112;11.662;2022-09-09T16:21:50;95300.06;;;23.63
34310;BMP280;61664;48.112;11.662;2022-09-09T16:24:19;95308.59;;;24.07
34310;BMP280;61664;48.112;11.662;2022-09-09T16:26:50;95309.25;;;24.72
34310;BMP280;61664;48.112;11.662;2022-09-09T16:29:18;95292.25;;;25.33
34310;BMP280;61664;48.112;11.662;2022-09-09T16:31:46;95307.25;;;26.13